createdAt,value
2023-01-26T00:01:13.951Z,63.20
2023-01-26T00:03:45.194Z,65.50
2023-01-26T00:06:18.525Z,57.80
2023-01-26T00:08:51.388Z,60.70
2023-01-26T00:11:26.836Z,55.30
2023-01-26T00:13:59.207Z,62.00
2023-01-26T00:16:30.583Z,65.90
2023-01-26T00:19:02.262Z,62.50
2023-01-26T00:21:33.255Z,58.50
2023-01-26T00:24:05.195Z,53.80
2023-01-26T00:26:36.126Z,63.40
2023-01-26T00:29:07.029Z,55.20
2023-01-26T00:31:37.997Z,61.10
2023-01-26T00:34:08.974Z,51.80
2023-01-26T00:36:39.937Z,58.00
2023-01-26T00:39:11.312Z,60.20
2023-01-26T00:42:00.080Z,55.90
2023-01-26T00:44:31.066Z,60.40
2023-01-26T00:47:02.193Z,58.70
2023-01-26T00:49:33.150Z,56.90
2023-01-26T00:52:04.800Z,62.60
2023-01-26T00:54:35.981Z,52.50
2023-01-26T00:57:07.166Z,58.70
2023-01-26T00:59:39.730Z,55.40
2023-01-26T01:02:10.849Z,64.60
2023-01-26T01:04:41.914Z,58.90
2023-01-26T01:07:12.862Z,57.90
2023-01-26T01:09:43.886Z,58.90
2023-01-26T01:12:15.551Z,55.40
2023-01-26T01:14:46.499Z,61.60
2023-01-26T01:17:18.417Z,56.50
2023-01-26T01:19:49.769Z,58.00
2023-01-26T01:22:20.807Z,60.30
2023-01-26T01:24:51.801Z,57.10
2023-01-26T01:27:22.741Z,63.40
2023-01-26T01:29:53.975Z,62.20
2023-01-26T01:32:25.333Z,52.70
2023-01-26T01:34:56.268Z,57.10
2023-01-26T01:37:27.153Z,56.50
2023-01-26T01:39:58.160Z,52.00
2023-01-26T01:42:30.103Z,51.30
2023-01-26T01:45:38.746Z,53.10
2023-01-26T01:48:18.428Z,51.80
2023-01-26T01:50:51.213Z,53.30
2023-01-26T01:53:27.396Z,57.90
2023-01-26T01:56:02.558Z,54.90
2023-01-26T02:01:04.703Z,49.50
2023-01-26T02:03:37.044Z,57.80
2023-01-26T02:06:13.891Z,55.90
2023-01-26T02:08:48.729Z,53.10
2023-01-26T02:11:24.238Z,49.10
2023-01-26T02:13:55.910Z,52.80
2023-01-26T02:16:26.981Z,56.20
2023-01-26T02:18:58.265Z,59.20
2023-01-26T02:21:29.578Z,60.10
2023-01-26T02:24:09.273Z,52.90
2023-01-26T02:26:41.238Z,60.90
2023-01-26T02:29:13.952Z,57.80
2023-01-26T02:31:47.398Z,56.00
2023-01-26T02:34:18.510Z,57.50
2023-01-26T02:37:00.116Z,57.90
2023-01-26T02:39:42.904Z,46.80
2023-01-26T02:42:31.953Z,57.90
2023-01-26T02:45:04.105Z,52.10
2023-01-26T02:47:35.137Z,51.30
2023-01-26T02:50:10.479Z,58.20
2023-01-26T02:52:42.954Z,55.90
2023-01-26T02:55:26.482Z,57.00
2023-01-26T02:57:59.462Z,58.40
2023-01-26T03:00:32.893Z,56.90
2023-01-26T03:03:09.343Z,58.00
2023-01-26T03:05:40.275Z,55.30
2023-01-26T03:08:11.241Z,61.60
2023-01-26T03:10:42.925Z,58.40
2023-01-26T03:13:14.254Z,56.70
2023-01-26T03:15:48.725Z,64.70
2023-01-26T03:18:38.722Z,66.00
2023-01-26T03:21:31.401Z,61.30
2023-01-26T03:24:21.059Z,60.40
2023-01-26T03:27:10.290Z,52.70
2023-01-26T03:29:41.943Z,51.70
2023-01-26T03:32:14.186Z,67.40
2023-01-26T03:34:46.885Z,51.80
2023-01-26T03:37:22.410Z,60.60
2023-01-26T03:40:20.445Z,58.60
2023-01-26T03:43:09.058Z,56.30
2023-01-26T03:45:57.749Z,51.80
2023-01-26T03:48:46.811Z,61.10
2023-01-26T03:51:36.918Z,49.60
2023-01-26T03:54:26.027Z,60.90
2023-01-26T03:56:57.061Z,54.80
2023-01-26T03:59:39.266Z,56.90
2023-01-26T04:02:33.653Z,54.00
2023-01-26T04:05:23.650Z,54.40
2023-01-26T04:08:22.916Z,58.40
2023-01-26T04:10:58.385Z,60.70
2023-01-26T04:13:47.628Z,58.00
2023-01-26T04:16:43.384Z,58.90
2023-01-26T04:19:32.013Z,52.30
2023-01-26T04:22:03.259Z,59.70
2023-01-26T04:27:08.194Z,63.80
2023-01-26T04:29:42.499Z,55.00
2023-01-26T04:32:13.580Z,61.60
2023-01-26T04:34:45.060Z,64.80
2023-01-26T04:37:23.918Z,54.10
2023-01-26T04:39:55.836Z,51.60
2023-01-26T04:42:27.252Z,60.70
2023-01-26T04:44:59.405Z,64.60
2023-01-26T04:47:31.371Z,57.00
2023-01-26T04:50:02.354Z,61.90
2023-01-26T04:52:33.274Z,62.50
2023-01-26T04:55:04.386Z,61.40
2023-01-26T04:57:37.147Z,58.60
2023-01-26T05:00:12.591Z,63.00
2023-01-26T05:02:43.760Z,61.10
2023-01-26T05:05:15.148Z,65.50
2023-01-26T05:07:46.250Z,65.20
2023-01-26T05:10:19.067Z,50.60
2023-01-26T05:13:18.713Z,92.60
2023-01-26T05:16:08.016Z,69.50
2023-01-26T05:18:59.470Z,66.80
2023-01-26T05:21:50.694Z,67.90
2023-01-26T05:24:21.805Z,58.80
2023-01-26T05:27:24.418Z,64.30
2023-01-26T05:30:03.702Z,55.30
2023-01-26T05:32:37.825Z,60.00
2023-01-26T05:35:10.656Z,55.20
2023-01-26T05:37:43.257Z,61.10
2023-01-26T05:40:15.721Z,64.80
2023-01-26T05:42:46.693Z,62.70
2023-01-26T05:45:43.509Z,50.00
2023-01-26T05:48:16.309Z,53.30
2023-01-26T05:50:48.539Z,49.20
2023-01-26T05:53:24.539Z,53.50
2023-01-26T05:55:55.736Z,46.60
2023-01-26T05:58:28.736Z,53.60
2023-01-26T06:01:00.139Z,56.70
2023-01-26T06:03:33.158Z,48.30
2023-01-26T06:06:04.471Z,47.10
2023-01-26T06:09:02.184Z,53.80
2023-01-26T06:11:53.353Z,45.50
2023-01-26T06:14:34.667Z,50.30
2023-01-26T06:17:07.356Z,63.00
2023-01-26T06:19:38.897Z,61.20
2023-01-26T06:22:12.859Z,67.20
2023-01-26T06:24:47.433Z,59.40
2023-01-26T06:27:20.390Z,45.00
2023-01-26T06:29:53.391Z,48.10
2023-01-26T06:32:25.525Z,47.40
2023-01-26T06:34:58.603Z,50.90
2023-01-26T06:37:29.716Z,52.20
2023-01-26T06:40:01.142Z,49.70
2023-01-26T06:42:32.199Z,49.30
2023-01-26T06:45:04.412Z,52.10
2023-01-26T06:47:36.856Z,51.00
2023-01-26T06:50:10.940Z,65.00
2023-01-26T06:52:44.523Z,61.60
2023-01-26T06:55:39.409Z,67.00
2023-01-26T06:58:28.414Z,58.10
2023-01-26T07:01:20.994Z,71.10
2023-01-26T07:03:52.563Z,67.80
2023-01-26T07:06:24.308Z,68.50
2023-01-26T07:08:55.246Z,54.40
2023-01-26T07:11:26.801Z,56.90
2023-01-26T07:13:57.771Z,56.30
2023-01-26T07:16:28.817Z,49.30
2023-01-26T07:18:59.856Z,63.10
2023-01-26T07:21:31.511Z,57.30
2023-01-26T07:24:02.644Z,47.90
2023-01-26T07:26:33.653Z,52.90
2023-01-26T07:29:04.533Z,55.50
2023-01-26T07:31:35.546Z,45.10
2023-01-26T07:34:06.470Z,50.60
2023-01-26T07:36:41.284Z,46.60
2023-01-26T07:39:13.125Z,50.40
2023-01-26T07:41:44.158Z,56.60
2023-01-26T07:44:36.693Z,43.10
2023-01-26T07:47:09.260Z,45.10
2023-01-26T07:49:40.706Z,56.80
2023-01-26T07:52:11.702Z,50.00
2023-01-26T07:54:42.705Z,39.40
2023-01-26T07:57:14.707Z,51.80
2023-01-26T07:59:45.589Z,46.80
2023-01-26T08:02:16.540Z,37.60
2023-01-26T08:04:47.483Z,45.20
2023-01-26T08:07:18.521Z,42.30
2023-01-26T08:09:49.520Z,49.00
2023-01-26T08:12:20.649Z,36.70
2023-01-26T08:14:51.738Z,49.00
2023-01-26T08:17:22.821Z,43.70
2023-01-26T08:19:53.819Z,37.90
2023-01-26T08:22:24.928Z,35.00
2023-01-26T08:24:55.838Z,42.50
2023-01-26T08:27:27.342Z,44.40
2023-01-26T08:29:58.833Z,46.90
2023-01-26T08:32:33.426Z,38.50
2023-01-26T08:35:04.533Z,42.60
2023-01-26T08:37:36.231Z,39.80
2023-01-26T08:40:09.370Z,32.30
2023-01-26T08:42:41.117Z,35.60
2023-01-26T08:45:13.575Z,31.50
2023-01-26T08:47:45.584Z,30.90
2023-01-26T08:50:17.115Z,26.00
2023-01-26T08:52:48.421Z,42.30
2023-01-26T08:55:19.767Z,31.40
2023-01-26T08:57:56.340Z,29.40
2023-01-26T09:00:28.516Z,30.30
2023-01-26T09:03:04.371Z,28.60
2023-01-26T09:05:37.252Z,27.20
2023-01-26T09:08:10.612Z,31.10
2023-01-26T09:10:43.551Z,28.60
2023-01-26T09:13:14.593Z,27.20
2023-01-26T09:15:45.508Z,25.00
2023-01-26T09:18:16.565Z,27.60
2023-01-26T09:20:47.721Z,29.00
2023-01-26T09:23:18.819Z,33.50
2023-01-26T09:25:55.520Z,29.50
2023-01-26T09:28:26.732Z,26.90
2023-01-26T09:30:58.046Z,27.90
2023-01-26T09:33:29.123Z,28.20
2023-01-26T09:36:06.148Z,29.20
2023-01-26T09:38:37.089Z,28.10
2023-01-26T09:41:19.612Z,21.50
2023-01-26T09:43:54.478Z,40.50
2023-01-26T09:46:29.105Z,28.30
2023-01-26T09:49:07.417Z,28.60
2023-01-26T09:51:43.737Z,26.60
2023-01-26T09:54:26.538Z,23.80
2023-01-26T09:57:01.322Z,22.60
2023-01-26T09:59:37.475Z,20.90
2023-01-26T10:02:27.475Z,24.80
2023-01-26T10:05:03.799Z,25.50
2023-01-26T10:07:34.756Z,25.50
2023-01-26T10:10:06.197Z,20.40
2023-01-26T10:12:40.730Z,29.90
2023-01-26T10:15:29.102Z,26.90
2023-01-26T10:18:06.400Z,21.70
2023-01-26T10:20:40.760Z,21.50
2023-01-26T10:23:17.452Z,26.20
2023-01-26T10:25:49.008Z,18.80
2023-01-26T10:28:24.226Z,20.40
2023-01-26T10:30:55.779Z,22.60
2023-01-26T10:33:32.890Z,21.80
2023-01-26T10:36:06.812Z,26.20
2023-01-26T10:38:46.317Z,26.40
2023-01-26T10:41:29.497Z,27.10
2023-01-26T10:44:03.555Z,25.50
2023-01-26T10:46:38.273Z,28.60
2023-01-26T10:49:18.547Z,19.60
2023-01-26T10:52:08.833Z,20.70
2023-01-26T10:54:39.765Z,20.20
2023-01-26T10:57:24.167Z,18.70
2023-01-26T10:59:57.640Z,17.90
2023-01-26T11:02:31.102Z,21.50
2023-01-26T11:05:20.441Z,19.10
2023-01-26T11:07:55.422Z,21.20
2023-01-26T11:10:30.655Z,22.50
2023-01-26T11:13:16.706Z,22.40
2023-01-26T11:15:49.361Z,20.60
2023-01-26T11:18:30.788Z,22.00
2023-01-26T11:21:07.575Z,19.40
2023-01-26T11:24:01.028Z,22.00
2023-01-26T11:26:51.377Z,19.70
2023-01-26T11:29:47.196Z,22.00
2023-01-26T11:32:26.156Z,16.50
2023-01-26T11:35:11.806Z,20.70
2023-01-26T11:37:48.082Z,22.40
2023-01-26T11:40:26.556Z,18.10
2023-01-26T11:43:24.051Z,23.80
2023-01-26T11:46:17.550Z,22.20
2023-01-26T11:49:01.870Z,25.60
2023-01-26T11:51:49.987Z,22.80
2023-01-26T11:54:36.955Z,23.20
2023-01-26T11:57:18.728Z,18.60
2023-01-26T11:59:54.374Z,16.40
2023-01-26T12:02:32.668Z,23.10
2023-01-26T12:05:14.081Z,21.60
2023-01-26T12:07:54.801Z,20.90
2023-01-26T12:10:31.683Z,28.80
2023-01-26T12:13:13.265Z,22.10
2023-01-26T12:15:48.710Z,22.50
2023-01-26T12:18:38.091Z,18.10
2023-01-26T12:21:16.307Z,23.50
2023-01-26T12:23:53.105Z,20.60
2023-01-26T12:26:27.157Z,21.00
2023-01-26T12:29:11.579Z,20.90
2023-01-26T12:31:49.992Z,22.10
2023-01-26T12:34:28.287Z,23.30
2023-01-26T12:37:19.553Z,25.50
2023-01-26T12:40:00.005Z,19.30
2023-01-26T12:42:43.631Z,23.80
2023-01-26T12:45:21.293Z,23.00
2023-01-26T12:47:55.695Z,22.80
2023-01-26T12:50:35.287Z,28.30
2023-01-26T12:53:12.782Z,30.40
2023-01-26T12:55:49.339Z,26.60
2023-01-26T12:58:25.122Z,69.40
2023-01-26T13:01:02.331Z,23.80
2023-01-26T13:03:38.670Z,25.70
2023-01-26T13:06:24.759Z,27.60
2023-01-26T13:09:04.630Z,24.70
2023-01-26T13:11:47.601Z,24.30
2023-01-26T13:14:38.633Z,27.80
2023-01-26T13:17:40.329Z,24.60
2023-01-26T13:20:42.151Z,20.00
2023-01-26T13:23:44.089Z,22.30
2023-01-26T13:26:25.087Z,22.20
2023-01-26T13:29:35.551Z,21.90
2023-01-26T13:32:58.191Z,35.50
2023-01-26T13:35:30.788Z,27.50
2023-01-26T13:38:10.875Z,26.50
2023-01-26T13:40:52.603Z,33.60
2023-01-26T13:43:34.208Z,35.60
2023-01-26T13:46:21.089Z,33.80
2023-01-26T13:48:53.269Z,31.30
2023-01-26T13:51:26.882Z,32.20
2023-01-26T13:54:10.937Z,30.30
2023-01-26T13:56:43.848Z,28.60
2023-01-26T13:59:16.922Z,28.20
2023-01-26T14:01:49.865Z,25.60
2023-01-26T14:04:22.097Z,31.10
2023-01-26T14:06:57.913Z,30.50
2023-01-26T14:09:32.714Z,31.20
2023-01-26T14:12:05.482Z,44.00
2023-01-26T14:14:38.576Z,31.20
2023-01-26T14:17:25.655Z,41.80
2023-01-26T14:19:56.944Z,35.90
2023-01-26T14:22:28.665Z,26.70
2023-01-26T14:24:59.975Z,36.30
2023-01-26T14:27:39.715Z,33.10
2023-01-26T14:35:40.519Z,30.70
2023-01-26T14:38:28.274Z,35.30
2023-01-26T14:41:02.131Z,39.00
2023-01-26T14:43:33.148Z,40.70
2023-01-26T14:46:10.828Z,30.20
2023-01-26T14:48:47.049Z,37.30
2023-01-26T14:51:22.580Z,43.80
2023-01-26T14:53:57.108Z,38.50
2023-01-26T14:56:36.358Z,40.40
2023-01-26T14:59:09.954Z,30.00
2023-01-26T15:01:41.835Z,36.50
2023-01-26T15:04:43.051Z,34.70
2023-01-26T15:07:42.975Z,44.40
2023-01-26T15:10:37.790Z,38.70
2023-01-26T15:13:20.728Z,32.10
2023-01-26T15:16:06.385Z,32.60
2023-01-26T15:18:37.681Z,36.90
2023-01-26T15:21:20.061Z,38.50
2023-01-26T15:23:56.186Z,39.10
2023-01-26T15:26:30.828Z,35.40
2023-01-26T15:29:04.430Z,46.10
2023-01-26T15:31:38.066Z,31.70
2023-01-26T15:34:23.169Z,35.10
2023-01-26T15:36:54.652Z,48.30
2023-01-26T15:39:26.226Z,34.80
2023-01-26T15:42:13.319Z,38.40
2023-01-26T15:44:45.184Z,35.50
2023-01-26T15:47:16.482Z,35.30
2023-01-26T15:49:47.479Z,51.20
2023-01-26T15:52:25.772Z,40.00
2023-01-26T15:54:56.884Z,40.70
2023-01-26T15:57:27.849Z,31.30
2023-01-26T15:59:59.171Z,46.30
2023-01-26T16:02:32.849Z,47.70
2023-01-26T16:05:03.829Z,47.10
2023-01-26T16:07:34.998Z,38.60
2023-01-26T16:10:07.187Z,39.90
2023-01-26T16:12:38.086Z,33.70
2023-01-26T16:15:25.195Z,48.00
2023-01-26T16:17:56.272Z,45.50
2023-01-26T16:20:27.361Z,45.90
2023-01-26T16:22:58.471Z,37.70
2023-01-26T16:25:31.601Z,49.00
2023-01-26T16:28:02.692Z,41.80
2023-01-26T16:30:33.725Z,47.90
2023-01-26T16:33:05.000Z,47.40
2023-01-26T16:35:36.023Z,38.40
2023-01-26T16:38:12.926Z,41.40
2023-01-26T16:40:45.879Z,42.00
2023-01-26T16:43:23.424Z,32.60
2023-01-26T16:45:55.414Z,36.20
2023-01-26T16:48:28.794Z,36.50
2023-01-26T16:50:59.777Z,38.20
2023-01-26T16:53:35.175Z,34.50
2023-01-26T16:56:07.405Z,40.60
2023-01-26T16:58:38.442Z,40.60
2023-01-26T17:01:14.935Z,38.90
2023-01-26T17:03:46.141Z,37.30
2023-01-26T17:06:18.004Z,39.20
2023-01-26T17:08:49.307Z,42.00
2023-01-26T17:11:23.206Z,33.90
2023-01-26T17:13:56.062Z,32.50
2023-01-26T17:16:29.755Z,28.50
2023-01-26T17:19:00.810Z,34.60
2023-01-26T17:21:31.848Z,33.10
2023-01-26T17:24:02.828Z,34.90
2023-01-26T17:26:34.330Z,35.60
2023-01-26T17:29:05.233Z,36.40
2023-01-26T17:31:36.729Z,39.40
2023-01-26T17:34:08.285Z,44.30
2023-01-26T17:36:39.633Z,30.10
2023-01-26T17:39:12.234Z,30.20
2023-01-26T17:41:43.154Z,36.20
2023-01-26T17:44:15.433Z,36.90
2023-01-26T17:46:46.427Z,30.70
2023-01-26T17:49:17.405Z,29.80
2023-01-26T17:51:48.385Z,28.20
2023-01-26T17:54:19.333Z,29.10
2023-01-26T17:56:50.787Z,30.50
2023-01-26T17:59:21.946Z,22.30
2023-01-26T18:01:53.241Z,30.80
2023-01-26T18:04:24.267Z,33.20
2023-01-26T18:06:55.317Z,35.60
2023-01-26T18:09:27.083Z,28.70
2023-01-26T18:11:57.998Z,25.40
2023-01-26T18:14:29.423Z,26.80
2023-01-26T18:17:00.373Z,33.70
2023-01-26T18:19:31.391Z,26.60
2023-01-26T18:22:02.512Z,19.40
2023-01-26T18:24:33.690Z,24.20
2023-01-26T18:27:04.686Z,25.50
2023-01-26T18:29:35.761Z,22.00
2023-01-26T18:32:07.422Z,21.70
2023-01-26T18:34:41.059Z,24.50
2023-01-26T18:37:12.719Z,23.50
2023-01-26T18:39:43.998Z,21.10
2023-01-26T18:42:15.013Z,24.10
2023-01-26T18:44:46.164Z,25.70
2023-01-26T18:47:17.175Z,25.10
2023-01-26T18:49:48.099Z,23.00
2023-01-26T18:52:19.107Z,22.10
2023-01-26T18:54:50.475Z,27.70
2023-01-26T18:57:22.142Z,27.10
2023-01-26T18:59:54.051Z,23.20
2023-01-26T19:02:25.717Z,23.50
2023-01-26T19:04:57.703Z,22.20
2023-01-26T19:07:28.726Z,25.50
2023-01-26T19:09:59.686Z,28.00
2023-01-26T19:12:30.789Z,29.20
2023-01-26T19:15:02.112Z,27.60
2023-01-26T19:17:33.021Z,28.40
2023-01-26T19:20:04.993Z,34.00
2023-01-26T19:22:35.945Z,27.30
2023-01-26T19:25:07.933Z,32.80
2023-01-26T19:27:40.525Z,26.30
2023-01-26T19:30:15.673Z,32.00
2023-01-26T19:35:30.270Z,28.90
2023-01-26T19:38:01.163Z,29.30
2023-01-26T19:40:33.145Z,32.60
2023-01-26T19:43:06.719Z,33.20
2023-01-26T19:45:37.625Z,28.90
2023-01-26T19:48:08.843Z,29.10
2023-01-26T19:50:40.502Z,27.00
2023-01-26T19:53:11.748Z,37.60
2023-01-26T19:55:42.699Z,32.60
2023-01-26T19:58:15.327Z,34.20
2023-01-26T20:00:47.593Z,30.00
2023-01-26T20:03:19.008Z,30.80
2023-01-26T20:05:49.945Z,35.30
2023-01-26T20:08:20.955Z,34.80
2023-01-26T20:10:51.888Z,30.60
2023-01-26T20:13:23.052Z,27.20
2023-01-26T20:15:55.919Z,34.10
2023-01-26T20:18:27.113Z,32.50
2023-01-26T20:21:00.854Z,25.50
2023-01-26T20:23:32.418Z,28.60
2023-01-26T20:26:08.598Z,29.20
2023-01-26T20:28:40.962Z,30.40
2023-01-26T20:31:15.841Z,32.30
2023-01-26T20:33:49.129Z,32.20
2023-01-26T20:36:22.600Z,32.80
2023-01-26T20:38:54.244Z,32.30
2023-01-26T20:41:27.463Z,30.40
2023-01-26T20:44:01.585Z,39.30
2023-01-26T20:46:35.566Z,27.90
2023-01-26T20:49:09.041Z,36.00
2023-01-26T20:51:42.809Z,35.50
2023-01-26T20:54:16.741Z,31.70
2023-01-26T20:56:49.193Z,31.80
2023-01-26T20:59:22.154Z,42.90
2023-01-26T21:01:53.136Z,43.00
2023-01-26T21:04:24.074Z,38.60
2023-01-26T21:06:55.504Z,51.80
2023-01-26T21:09:26.654Z,33.40
2023-01-26T21:11:57.658Z,27.60
2023-01-26T21:14:28.614Z,34.30
2023-01-26T21:16:59.634Z,46.50
2023-01-26T21:19:30.871Z,40.20
2023-01-26T21:22:01.835Z,31.40
2023-01-26T21:24:32.939Z,30.20
2023-01-26T21:27:05.161Z,35.80
2023-01-26T21:29:36.101Z,28.90
2023-01-26T21:32:07.310Z,26.70
2023-01-26T21:34:38.263Z,28.80
2023-01-26T21:37:09.337Z,33.30
2023-01-26T21:39:40.230Z,28.50
2023-01-26T21:42:11.170Z,33.80
2023-01-26T21:44:56.058Z,31.60
2023-01-26T21:47:27.027Z,31.20
2023-01-26T21:49:59.486Z,39.40
2023-01-26T21:52:48.410Z,33.10
2023-01-26T21:55:19.525Z,27.60
2023-01-26T21:58:08.110Z,33.20
2023-01-26T22:00:39.562Z,28.10
2023-01-26T22:03:10.601Z,30.90
2023-01-26T22:05:41.659Z,30.70
2023-01-26T22:08:12.688Z,34.70
2023-01-26T22:10:43.630Z,31.30
2023-01-26T22:13:15.701Z,30.30
2023-01-26T22:15:46.728Z,34.60
2023-01-26T22:18:18.305Z,32.60
2023-01-26T22:20:49.644Z,34.30
2023-01-26T22:23:20.587Z,31.30
2023-01-26T22:25:51.898Z,29.20
2023-01-26T22:28:22.908Z,35.00
2023-01-26T22:30:53.994Z,25.30
2023-01-26T22:33:25.363Z,33.40
2023-01-26T22:36:04.424Z,30.30
2023-01-26T22:38:36.409Z,24.80
2023-01-26T22:41:08.525Z,27.40
2023-01-26T22:43:39.574Z,28.40
2023-01-26T22:46:12.760Z,27.30
2023-01-26T22:48:43.818Z,27.30
2023-01-26T22:51:18.230Z,28.50
2023-01-26T22:53:51.425Z,26.30
2023-01-26T22:56:22.988Z,25.30
2023-01-26T22:58:58.397Z,27.20
2023-01-26T23:01:32.187Z,36.40
2023-01-26T23:04:03.542Z,26.90
2023-01-26T23:06:34.624Z,33.60
2023-01-26T23:09:05.745Z,30.40
2023-01-26T23:11:36.761Z,32.20
2023-01-26T23:14:07.750Z,33.00
2023-01-26T23:16:38.743Z,30.50
2023-01-26T23:19:09.813Z,29.40
2023-01-26T23:21:40.882Z,33.40
2023-01-26T23:24:12.896Z,32.20
2023-01-26T23:26:44.376Z,28.60
2023-01-26T23:29:15.340Z,34.10
2023-01-26T23:31:46.339Z,27.70
2023-01-26T23:34:17.344Z,30.20
2023-01-26T23:36:48.286Z,31.40
2023-01-26T23:39:19.633Z,30.00
2023-01-26T23:41:50.629Z,29.10
2023-01-26T23:44:21.703Z,32.50
2023-01-26T23:46:52.792Z,28.70
2023-01-26T23:49:24.502Z,33.00
2023-01-26T23:51:55.546Z,29.40
2023-01-26T23:54:26.589Z,35.10
2023-01-26T23:56:57.665Z,27.70
2023-01-26T23:59:28.644Z,31.50
